Terminal Aerodrome Forecast
Issued by NWS

Home | Current Version | Previous Version | Text Only | Print | Product List | Glossary On
Versions: 1 2 3 4 5 6 7 8 9 10 11 12 13 14 15 16 17 18 19 20 21
000
FTUS43 KDVN 010500
TAFBRL
TAF
KBRL 010536Z 0106/0206 15008KT 1 1/2SM -SN BR OVC003
      TEMPO 0106/0110 1/2SM SN FZFG VV003
     FM011000 10009KT 1/2SM SN FZFG OVC004
     FM011500 05013G20KT 1/2SM SN FZFG OVC003
     FM011900 03017G26KT 1/2SM SN BLSN VV003
     FM012300 01016G24KT 1SM -SN OVC007=

USA.gov is the U.S. government's official web portal to all federal, state and local government web resources and services.